createdAt,value
2018-07-22T11:47:35.334Z,88.00
2018-07-22T11:50:09.244Z,88.60
2018-07-22T11:52:41.457Z,88.10
2018-07-22T11:55:14.014Z,88.60
2018-07-22T11:57:47.584Z,87.50
2018-07-22T12:00:21.536Z,88.10
2018-07-22T12:03:05.489Z,88.20
2018-07-22T12:05:37.410Z,88.00
2018-07-22T12:08:09.890Z,87.90
2018-07-22T12:10:42.558Z,87.70
2018-07-22T12:13:15.850Z,87.80
2018-07-22T12:15:53.393Z,87.80
2018-07-22T12:18:28.161Z,87.70
2018-07-22T12:21:01.401Z,87.30
2018-07-22T12:23:37.701Z,87.80
2018-07-22T12:26:12.891Z,87.50
2018-07-22T12:28:51.524Z,88.60
2018-07-22T12:31:32.628Z,88.70
2018-07-22T12:34:06.255Z,88.00
2018-07-22T12:36:38.174Z,86.70
2018-07-22T12:39:13.566Z,87.40
2018-07-22T12:41:55.627Z,87.20
2018-07-22T12:44:35.716Z,87.30
2018-07-22T12:47:16.267Z,88.00
2018-07-22T12:49:48.113Z,88.90
2018-07-22T12:52:21.872Z,88.70
2018-07-22T12:54:54.293Z,89.10
2018-07-22T12:57:27.362Z,88.90
2018-07-22T12:59:59.673Z,89.90
2018-07-22T13:02:34.512Z,89.30
2018-07-22T13:05:07.102Z,89.90
2018-07-22T13:07:41.456Z,89.90
2018-07-22T13:10:15.462Z,90.10
2018-07-22T13:12:51.851Z,90.10
2018-07-22T13:15:23.619Z,90.20
2018-07-22T13:17:59.700Z,90.30
2018-07-22T13:20:39.110Z,90.40
2018-07-22T13:23:11.141Z,90.30
2018-07-22T13:25:42.780Z,90.30
2018-07-22T13:28:14.971Z,90.20
2018-07-22T13:30:54.797Z,90.20
2018-07-22T13:33:35.154Z,90.00
2018-07-22T13:36:14.959Z,90.30
2018-07-22T13:38:54.518Z,89.60
2018-07-22T13:41:33.886Z,90.10
2018-07-22T13:44:08.126Z,90.10
2018-07-22T13:46:44.728Z,90.10
2018-07-22T13:49:22.665Z,90.20
2018-07-22T13:52:02.509Z,90.20
2018-07-22T13:54:42.148Z,90.60
2018-07-22T13:57:13.990Z,90.50
2018-07-22T13:59:51.014Z,90.30
2018-07-22T14:02:30.704Z,90.20
2018-07-22T14:05:06.888Z,89.00
2018-07-22T14:07:46.260Z,89.50
2018-07-22T14:10:26.131Z,90.00
2018-07-22T14:13:06.008Z,90.10
2018-07-22T14:15:45.705Z,89.80
2018-07-22T14:18:25.970Z,89.60
2018-07-22T14:21:09.041Z,89.10
2018-07-22T14:23:49.679Z,89.60
2018-07-22T14:26:40.064Z,89.80
2018-07-22T14:29:20.589Z,90.10
2018-07-22T14:32:02.040Z,89.60
2018-07-22T14:34:42.426Z,89.40
2018-07-22T14:37:22.830Z,90.00
2018-07-22T14:40:03.642Z,90.10
2018-07-22T14:42:44.060Z,89.80
2018-07-22T14:45:24.337Z,90.00
2018-07-22T14:47:56.186Z,89.10
2018-07-22T14:50:36.680Z,89.20
2018-07-22T14:53:09.298Z,89.50
2018-07-22T14:55:50.700Z,89.50
2018-07-22T14:58:30.701Z,89.70
2018-07-22T15:01:04.759Z,89.70
2018-07-22T15:03:58.348Z,89.60
2018-07-22T15:06:31.239Z,88.70
2018-07-22T15:09:11.361Z,88.20
2018-07-22T15:11:51.216Z,88.60
2018-07-22T15:14:31.055Z,89.10
2018-07-22T15:17:10.933Z,89.20
2018-07-22T15:19:51.508Z,88.50
2018-07-22T15:22:31.693Z,88.60
2018-07-22T15:25:11.603Z,89.70
2018-07-22T15:27:52.140Z,90.00
2018-07-22T15:30:31.980Z,90.50
2018-07-22T15:33:12.152Z,90.70
2018-07-22T15:35:52.346Z,87.90
2018-07-22T15:38:33.677Z,87.60
2018-07-22T15:41:14.443Z,87.90
2018-07-22T15:43:54.810Z,87.20
2018-07-22T15:46:35.441Z,86.40
2018-07-22T15:49:15.910Z,86.70
2018-07-22T15:51:53.241Z,85.90
2018-07-22T15:54:33.287Z,87.00
2018-07-22T15:57:12.764Z,86.00
2018-07-22T15:59:52.790Z,86.10
2018-07-22T16:02:32.552Z,86.30
2018-07-22T16:05:13.331Z,86.60
2018-07-22T16:07:53.377Z,86.40
2018-07-22T16:10:35.990Z,85.70
2018-07-22T16:13:16.357Z,86.30
2018-07-22T16:15:56.792Z,87.50
2018-07-22T16:18:36.641Z,86.70
2018-07-22T16:21:16.975Z,86.80
2018-07-22T16:23:56.631Z,87.10
2018-07-22T16:26:37.192Z,87.60
2018-07-22T16:29:16.678Z,87.10
2018-07-22T16:31:56.760Z,88.50
2018-07-22T16:34:37.067Z,88.50
2018-07-22T16:37:17.855Z,88.80
2018-07-22T16:39:57.801Z,88.50
2018-07-22T16:42:37.729Z,88.30
2018-07-22T16:45:15.583Z,88.60
2018-07-22T16:47:54.920Z,88.90
2018-07-22T16:50:35.240Z,89.10
2018-07-22T16:53:15.377Z,89.30
2018-07-22T16:55:55.465Z,89.10
2018-07-22T16:58:35.457Z,89.10
2018-07-22T17:01:15.438Z,89.40
2018-07-22T17:03:55.954Z,90.30
2018-07-22T17:06:37.383Z,90.00
2018-07-22T17:09:17.850Z,90.10
2018-07-22T17:11:57.504Z,89.60
2018-07-22T17:14:37.460Z,90.20
2018-07-22T17:18:21.954Z,90.30
2018-07-22T17:21:02.482Z,90.20
2018-07-22T17:23:43.799Z,90.10
2018-07-22T17:26:24.512Z,90.10
2018-07-22T17:29:05.083Z,90.00
2018-07-22T17:31:45.651Z,89.80
2018-07-22T17:34:25.709Z,90.10
2018-07-22T17:37:05.452Z,90.10
2018-07-22T17:39:45.107Z,90.10
2018-07-22T17:42:26.025Z,89.30
2018-07-22T17:45:05.584Z,89.10
2018-07-22T17:47:38.544Z,89.30
2018-07-22T17:50:15.868Z,89.50
2018-07-22T17:52:56.055Z,90.20
2018-07-22T17:55:36.201Z,90.30
2018-07-22T17:58:16.484Z,90.40
2018-07-22T18:00:56.398Z,90.50
2018-07-22T18:03:36.534Z,90.20
2018-07-22T18:06:15.995Z,90.30
2018-07-22T18:08:55.446Z,90.60
2018-07-22T18:11:32.322Z,90.50
2018-07-22T18:14:13.155Z,90.50
2018-07-22T18:16:53.629Z,90.40
2018-07-22T18:19:33.210Z,90.50
2018-07-22T18:22:13.104Z,90.40
2018-07-22T18:24:52.395Z,90.40
2018-07-22T18:30:11.313Z,90.50
2018-07-22T18:32:43.483Z,90.70
2018-07-22T18:35:23.499Z,90.50
2018-07-22T18:38:03.652Z,90.60
2018-07-22T18:40:41.982Z,90.60
2018-07-22T18:43:19.232Z,90.70
2018-07-22T18:45:59.338Z,90.60
2018-07-22T18:48:39.752Z,90.90
2018-07-22T18:51:19.543Z,91.00
2018-07-22T18:53:57.977Z,91.00
2018-07-22T18:56:37.344Z,91.00
2018-07-22T18:59:17.302Z,91.10
2018-07-22T19:01:57.154Z,91.30
2018-07-22T19:04:37.153Z,90.80
2018-07-22T19:07:17.078Z,91.00
2018-07-22T19:09:57.123Z,91.10
2018-07-22T19:12:36.959Z,91.10
2018-07-22T19:15:17.721Z,90.90
2018-07-22T19:17:57.870Z,90.90
2018-07-22T19:20:38.109Z,90.80
2018-07-22T19:23:17.713Z,90.70
2018-07-22T19:25:57.800Z,90.70
2018-07-22T19:28:37.590Z,90.80
2018-07-22T19:31:17.696Z,90.80
2018-07-22T19:33:58.042Z,90.70
2018-07-22T19:37:01.805Z,90.80
2018-07-22T19:39:42.931Z,90.60
2018-07-22T19:42:23.667Z,90.70
2018-07-22T19:45:03.018Z,90.70
2018-07-22T19:47:42.745Z,90.90
2018-07-22T19:50:22.671Z,91.00
2018-07-22T19:53:04.816Z,91.10
2018-07-22T19:55:45.220Z,91.00
2018-07-22T19:58:25.443Z,91.00
2018-07-22T20:01:05.316Z,91.00
2018-07-22T20:03:37.647Z,90.90
2018-07-22T20:06:17.525Z,91.10
2018-07-22T20:08:50.071Z,91.00
2018-07-22T20:11:30.433Z,90.90
2018-07-22T20:14:10.485Z,91.00
2018-07-22T20:16:50.944Z,91.00
2018-07-22T20:19:30.607Z,91.00
2018-07-22T20:22:10.392Z,91.00
2018-07-22T20:24:49.891Z,90.90
2018-07-22T20:27:21.580Z,91.00
2018-07-22T20:29:59.082Z,90.90
2018-07-22T20:32:37.341Z,91.00
2018-07-22T20:35:17.011Z,91.20
2018-07-22T20:37:56.903Z,91.40
2018-07-22T20:40:37.262Z,91.40
2018-07-22T20:43:16.764Z,91.40
2018-07-22T20:45:56.766Z,91.30
2018-07-22T20:48:28.737Z,91.20
2018-07-22T20:51:08.860Z,91.00
2018-07-22T20:53:49.370Z,91.10
2018-07-22T20:56:29.938Z,91.00
2018-07-22T20:59:10.569Z,91.00
2018-07-22T21:01:50.724Z,90.80
2018-07-22T21:04:31.063Z,90.50
2018-07-22T21:07:11.348Z,90.50
2018-07-22T21:09:51.436Z,90.50
2018-07-22T21:12:30.624Z,90.70
2018-07-22T21:15:10.542Z,90.90
2018-07-22T21:17:49.360Z,90.80
2018-07-22T21:20:31.057Z,90.40
2018-07-22T21:23:10.629Z,90.50
2018-07-22T21:25:50.355Z,90.40
2018-07-22T21:28:30.384Z,90.40
2018-07-22T21:31:14.342Z,90.40
2018-07-22T21:33:54.861Z,90.60
2018-07-22T21:36:34.625Z,90.40
2018-07-22T21:39:10.264Z,90.40
2018-07-22T21:41:50.706Z,90.60
2018-07-22T21:44:31.567Z,90.60
2018-07-22T21:49:58.341Z,90.60
2018-07-22T21:52:38.580Z,90.60
2018-07-22T21:55:10.722Z,90.60
2018-07-22T21:57:50.770Z,90.50
2018-07-22T22:00:35.613Z,90.50
2018-07-22T22:03:15.764Z,90.40
2018-07-22T22:05:55.913Z,90.50
2018-07-22T22:08:36.488Z,90.40
2018-07-22T22:11:16.848Z,90.60
2018-07-22T22:13:56.614Z,90.80
2018-07-22T22:16:37.584Z,90.80
2018-07-22T22:19:21.629Z,91.10
2018-07-22T22:21:55.655Z,91.10
2018-07-22T22:24:35.431Z,91.20
2018-07-22T22:27:15.472Z,91.00
2018-07-22T22:29:54.516Z,91.00
2018-07-22T22:32:31.427Z,90.90
2018-07-22T22:35:11.746Z,90.80
2018-07-22T22:37:51.792Z,90.80
2018-07-22T22:40:34.164Z,90.90
2018-07-22T22:43:14.281Z,90.80
2018-07-22T22:45:56.419Z,90.60
2018-07-22T22:48:35.745Z,90.30
2018-07-22T22:51:19.139Z,90.20
2018-07-22T22:53:51.790Z,90.30
2018-07-22T22:56:23.103Z,90.20
2018-07-22T22:59:04.720Z,90.10
2018-07-22T23:01:36.734Z,90.40
2018-07-22T23:04:09.209Z,90.30
2018-07-22T23:06:41.249Z,89.70
2018-07-22T23:09:14.209Z,89.70
2018-07-22T23:11:46.259Z,89.90
2018-07-22T23:14:26.712Z,89.50
2018-07-22T23:17:04.853Z,89.50
2018-07-22T23:19:36.043Z,89.90
2018-07-22T23:22:08.577Z,90.20
2018-07-22T23:24:54.846Z,90.30
2018-07-22T23:27:25.977Z,90.30
2018-07-22T23:29:58.053Z,90.40
2018-07-22T23:32:29.240Z,90.40
2018-07-22T23:35:10.869Z,90.50
2018-07-22T23:37:53.781Z,90.50
2018-07-22T23:40:25.160Z,90.40
2018-07-22T23:42:57.941Z,90.50
2018-07-22T23:45:39.840Z,90.40
2018-07-22T23:48:11.760Z,90.60
2018-07-22T23:50:56.541Z,90.70
2018-07-22T23:56:05.814Z,90.80
2018-07-22T23:58:38.061Z,90.60
